Jaipur, India
Current Conditions -  °F | °C
As of 2:30 PM on Sunday 23 Nov 2014 (Local Time) from VIJP Reporting Station
Haze Haze  
Wind Chill: 84°   Ceiling: Unl
Heat Index: 84°   Visibility: 1.5mi
Dew Point: 36°   Wind: 5mph
Humidity: 18%   Direction: NA
Pressure: 29.94"   Gusts: NA
Location:  26.91°N, 75.8°E
Report Text: VIJP 230930Z VRB04KT 2500 HZ NSC 29/02 Q1014 NOSIG
Loading
Personal Weather Stations






























Interactive Weather Map New forecast layout! Learn more

10-Day Weather Forecast

Advertisements
Track Severe Weather on mobile